createdAt,value
2022-09-17T00:00:18.509Z,11.23
2022-09-17T00:01:18.501Z,11.22
2022-09-17T00:02:18.501Z,11.22
2022-09-17T00:03:18.538Z,11.18
2022-09-17T00:04:18.485Z,11.26
2022-09-17T00:05:18.576Z,11.22
2022-09-17T00:06:18.464Z,11.14
2022-09-17T00:07:18.454Z,11.29
2022-09-17T00:08:18.447Z,11.29
2022-09-17T00:09:18.455Z,11.27
2022-09-17T00:10:18.434Z,11.32
2022-09-17T00:11:18.430Z,11.36
2022-09-17T00:12:18.416Z,11.35
2022-09-17T00:13:18.417Z,11.41
2022-09-17T00:14:18.410Z,11.29
2022-09-17T00:15:18.404Z,11.35
2022-09-17T00:16:18.425Z,11.22
2022-09-17T00:17:18.381Z,11.27
2022-09-17T00:18:18.372Z,11.29
2022-09-17T00:19:18.367Z,11.29
2022-09-17T00:20:18.369Z,11.23
2022-09-17T00:21:18.454Z,11.19
2022-09-17T00:22:18.348Z,11.26
2022-09-17T00:23:18.336Z,11.25
2022-09-17T00:24:18.325Z,11.17
2022-09-17T00:25:18.325Z,11.25
2022-09-17T00:26:18.316Z,11.10
2022-09-17T00:27:18.303Z,11.14
2022-09-17T00:28:18.321Z,11.10
2022-09-17T00:29:18.287Z,11.17
2022-09-17T00:31:18.219Z,11.23
2022-09-17T00:32:18.186Z,11.14
2022-09-17T00:33:19.268Z,11.18
2022-09-17T00:34:19.251Z,11.18
2022-09-17T00:35:19.248Z,11.07
2022-09-17T00:36:19.231Z,11.17
2022-09-17T00:37:20.336Z,11.19
2022-09-17T00:38:19.231Z,11.25
2022-09-17T00:39:19.216Z,11.19
2022-09-17T00:40:19.269Z,11.15
2022-09-17T00:41:19.201Z,11.11
2022-09-17T00:42:19.209Z,11.11
2022-09-17T00:43:19.185Z,11.15
2022-09-17T00:44:19.174Z,11.10
2022-09-17T00:45:19.174Z,11.10
2022-09-17T00:46:19.173Z,11.07
2022-09-17T00:47:19.159Z,11.11
2022-09-17T00:48:19.148Z,11.08
2022-09-17T00:49:19.135Z,11.04
2022-09-17T00:50:19.127Z,11.00
2022-09-17T00:51:19.130Z,11.08
2022-09-17T00:52:19.115Z,11.02
2022-09-17T00:53:19.202Z,11.05
2022-09-17T00:54:19.093Z,11.05
2022-09-17T00:55:19.091Z,10.96
2022-09-17T00:56:19.083Z,10.97
2022-09-17T00:57:19.082Z,11.07
2022-09-17T00:58:19.067Z,11.04
2022-09-17T00:59:19.069Z,10.89
2022-09-17T01:00:19.072Z,11.00
2022-09-17T01:01:19.142Z,11.00
2022-09-17T01:02:19.128Z,10.97
2022-09-17T01:03:19.028Z,10.94
2022-09-17T01:04:19.031Z,11.04
2022-09-17T01:05:19.010Z,10.93
2022-09-17T01:06:19.006Z,11.05
2022-09-17T01:07:19.000Z,11.04
2022-09-17T01:08:19.898Z,11.02
2022-09-17T01:09:19.080Z,10.94
2022-09-17T01:10:18.965Z,10.97
2022-09-17T01:11:18.959Z,10.89
2022-09-17T01:12:18.951Z,10.94
2022-09-17T01:13:18.943Z,10.93
2022-09-17T01:14:18.938Z,10.99
2022-09-17T01:15:18.923Z,10.94
2022-09-17T01:16:20.013Z,10.92
2022-09-17T01:17:18.915Z,10.90
2022-09-17T01:18:18.898Z,10.93
2022-09-17T01:19:18.905Z,10.99
2022-09-17T01:20:18.892Z,10.94
2022-09-17T01:21:18.881Z,10.97
2022-09-17T01:22:18.885Z,10.97
2022-09-17T01:23:18.862Z,10.94
2022-09-17T01:24:18.944Z,11.07
2022-09-17T01:25:18.956Z,10.99
2022-09-17T01:26:18.846Z,10.94
2022-09-17T01:27:18.856Z,10.94
2022-09-17T01:28:18.831Z,11.04
2022-09-17T01:29:18.822Z,10.96
2022-09-17T01:30:18.832Z,11.04
2022-09-17T01:31:18.858Z,10.97
2022-09-17T01:32:18.794Z,10.90
2022-09-17T01:33:18.803Z,10.86
2022-09-17T01:34:18.776Z,10.93
2022-09-17T01:35:18.774Z,10.92
2022-09-17T01:36:18.759Z,10.96
2022-09-17T01:37:18.751Z,10.87
2022-09-17T01:38:18.740Z,10.94
2022-09-17T01:39:18.735Z,10.87
2022-09-17T01:40:18.813Z,10.93
2022-09-17T01:41:18.822Z,11.00
2022-09-17T01:42:18.716Z,10.90
2022-09-17T01:43:18.706Z,10.86
2022-09-17T01:44:18.707Z,10.97
2022-09-17T01:45:18.697Z,10.93
2022-09-17T01:46:18.695Z,10.92
2022-09-17T01:47:21.016Z,10.90
2022-09-17T01:48:19.660Z,10.90
2022-09-17T01:49:18.654Z,10.96
2022-09-17T01:50:18.651Z,10.94
2022-09-17T01:51:18.657Z,10.79
2022-09-17T01:52:18.630Z,10.82
2022-09-17T01:53:18.628Z,10.90
2022-09-17T01:54:18.621Z,10.89
2022-09-17T01:55:18.613Z,10.78
2022-09-17T01:56:18.596Z,10.89
2022-09-17T01:57:18.736Z,10.92
2022-09-17T01:58:18.588Z,10.90
2022-09-17T01:59:18.574Z,10.84
2022-09-17T02:00:19.574Z,10.87
2022-09-17T02:01:18.632Z,10.82
2022-09-17T02:02:18.591Z,10.78
2022-09-17T02:03:18.541Z,10.82
2022-09-17T02:04:18.538Z,10.89
2022-09-17T02:05:18.538Z,10.81
2022-09-17T02:06:18.518Z,10.92
2022-09-17T02:07:18.522Z,10.94
2022-09-17T02:08:18.509Z,10.94
2022-09-17T02:09:18.501Z,10.93
2022-09-17T02:10:18.499Z,10.84
2022-09-17T02:11:18.477Z,10.94
2022-09-17T02:12:18.500Z,10.93
2022-09-17T02:13:18.568Z,10.93
2022-09-17T02:14:18.469Z,11.04
2022-09-17T02:15:18.455Z,11.02
2022-09-17T02:16:18.462Z,11.05
2022-09-17T02:17:19.437Z,10.96
2022-09-17T02:18:18.433Z,11.07
2022-09-17T02:19:18.422Z,11.11
2022-09-17T02:20:22.700Z,11.07
2022-09-17T02:21:19.400Z,11.04
2022-09-17T02:22:18.396Z,11.08
2022-09-17T02:23:18.408Z,11.04
2022-09-17T02:24:18.393Z,11.15
2022-09-17T02:25:18.385Z,11.02
2022-09-17T02:26:18.363Z,11.05
2022-09-17T02:27:18.352Z,11.05
2022-09-17T02:28:18.359Z,11.05
2022-09-17T02:29:18.441Z,11.10
2022-09-17T02:30:18.340Z,11.05
2022-09-17T02:31:18.390Z,11.05
2022-09-17T02:32:18.312Z,11.07
2022-09-17T02:33:18.297Z,11.11
2022-09-17T02:34:19.300Z,11.00
2022-09-17T02:35:18.297Z,10.94
2022-09-17T02:36:18.286Z,11.04
2022-09-17T02:37:18.941Z,11.05
2022-09-17T02:38:18.261Z,10.99
2022-09-17T02:39:18.258Z,11.05
2022-09-17T02:40:18.358Z,10.97
2022-09-17T02:41:18.251Z,10.99
2022-09-17T02:42:18.239Z,10.97
2022-09-17T02:43:18.225Z,10.94
2022-09-17T02:44:18.220Z,10.90
2022-09-17T02:45:18.308Z,10.94
2022-09-17T02:46:18.228Z,10.92
2022-09-17T02:47:18.200Z,10.94
2022-09-17T02:48:18.190Z,10.92
2022-09-17T02:49:18.183Z,10.94
2022-09-17T02:50:18.169Z,10.92
2022-09-17T02:51:18.176Z,10.94
2022-09-17T02:52:18.169Z,10.90
2022-09-17T02:53:18.148Z,10.90
2022-09-17T02:54:18.135Z,10.93
2022-09-17T02:55:18.135Z,10.90
2022-09-17T02:56:18.124Z,10.90
2022-09-17T02:57:18.129Z,10.90
2022-09-17T02:58:18.110Z,10.97
2022-09-17T02:59:18.104Z,10.92
2022-09-17T03:00:18.119Z,10.93
2022-09-17T03:01:18.279Z,10.94
2022-09-17T03:02:18.171Z,10.82
2022-09-17T03:03:18.068Z,10.97
2022-09-17T03:04:18.058Z,10.87
2022-09-17T03:05:18.053Z,10.94
2022-09-17T03:06:18.050Z,10.90
2022-09-17T03:07:18.030Z,10.93
2022-09-17T03:08:18.027Z,10.99
2022-09-17T03:09:18.020Z,10.97
2022-09-17T03:10:18.007Z,10.92
2022-09-17T03:11:18.009Z,10.96
2022-09-17T03:12:18.002Z,10.94
2022-09-17T03:13:17.983Z,11.02
2022-09-17T03:14:17.977Z,10.94
2022-09-17T03:15:17.979Z,11.00
2022-09-17T03:16:18.076Z,10.99
2022-09-17T03:17:18.062Z,10.92
2022-09-17T03:18:17.946Z,10.99
2022-09-17T03:19:17.951Z,11.00
2022-09-17T03:20:17.940Z,11.07
2022-09-17T03:21:17.921Z,11.08
2022-09-17T03:22:18.475Z,10.99
2022-09-17T03:23:17.911Z,10.99
2022-09-17T03:24:17.910Z,11.02
2022-09-17T03:25:17.891Z,11.08
2022-09-17T03:26:17.889Z,11.00
2022-09-17T03:27:17.932Z,10.99
2022-09-17T03:28:17.866Z,11.07
2022-09-17T03:29:17.859Z,11.08
2022-09-17T03:30:17.854Z,11.10
2022-09-17T03:31:17.890Z,11.10
2022-09-17T03:32:17.838Z,11.12
2022-09-17T03:33:17.935Z,11.15
2022-09-17T03:34:17.819Z,11.11
2022-09-17T03:35:17.813Z,11.02
2022-09-17T03:36:17.801Z,11.08
2022-09-17T03:37:17.794Z,11.05
2022-09-17T03:38:17.802Z,11.07
2022-09-17T03:39:17.779Z,11.10
2022-09-17T03:40:17.840Z,11.14
2022-09-17T03:41:17.762Z,11.14
2022-09-17T03:42:18.453Z,11.17
2022-09-17T03:43:17.746Z,11.18
2022-09-17T03:44:18.766Z,11.15
2022-09-17T03:45:17.731Z,11.23
2022-09-17T03:46:17.804Z,11.18
2022-09-17T03:47:17.718Z,11.22
2022-09-17T03:48:17.726Z,11.17
2022-09-17T03:49:17.801Z,11.27
2022-09-17T03:50:17.700Z,11.17
2022-09-17T03:51:17.694Z,11.18
2022-09-17T03:52:17.685Z,11.17
2022-09-17T03:53:17.679Z,11.17
2022-09-17T03:54:17.680Z,11.11
2022-09-17T03:55:17.663Z,11.18
2022-09-17T03:56:17.652Z,11.14
2022-09-17T03:57:17.949Z,11.19
2022-09-17T03:58:17.655Z,11.25
2022-09-17T03:59:17.631Z,11.27
2022-09-17T04:01:36.628Z,11.32
2022-09-17T04:02:36.584Z,11.23
2022-09-17T04:03:36.484Z,11.27
2022-09-17T04:04:36.583Z,11.23
2022-09-17T04:05:36.465Z,11.14
2022-09-17T04:06:36.459Z,11.26
2022-09-17T04:07:36.454Z,11.23
2022-09-17T04:08:36.448Z,11.15
2022-09-17T04:09:36.435Z,11.18
2022-09-17T04:10:36.427Z,11.18
2022-09-17T04:11:37.518Z,11.27
2022-09-17T04:12:37.502Z,11.32
2022-09-17T04:13:37.502Z,11.27
2022-09-17T04:14:37.499Z,11.23
2022-09-17T04:15:37.526Z,11.23
2022-09-17T04:16:37.476Z,11.22
2022-09-17T04:17:37.465Z,11.19
2022-09-17T04:18:37.469Z,11.30
2022-09-17T04:19:37.464Z,11.22
2022-09-17T04:20:37.546Z,11.25
2022-09-17T04:21:37.434Z,11.27
2022-09-17T04:22:37.437Z,11.29
2022-09-17T04:23:37.427Z,11.29
2022-09-17T04:24:37.412Z,11.29
2022-09-17T04:25:37.398Z,11.25
2022-09-17T04:26:37.390Z,11.30
2022-09-17T04:27:37.387Z,11.37
2022-09-17T04:28:37.373Z,11.26
2022-09-17T04:29:37.368Z,11.36
2022-09-17T04:30:37.362Z,11.27
2022-09-17T04:31:37.397Z,11.27
2022-09-17T04:32:38.862Z,11.35
2022-09-17T04:33:37.336Z,11.32
2022-09-17T04:34:37.324Z,11.33
2022-09-17T04:35:37.318Z,11.33
2022-09-17T04:36:37.412Z,11.29
2022-09-17T04:37:37.308Z,11.35
2022-09-17T04:38:37.294Z,11.32
2022-09-17T04:39:37.289Z,11.37
2022-09-17T04:40:37.350Z,11.33
2022-09-17T04:41:37.272Z,11.30
2022-09-17T04:42:37.269Z,11.35
2022-09-17T04:43:37.252Z,11.36
2022-09-17T04:44:37.256Z,11.36
2022-09-17T04:45:37.241Z,11.30
2022-09-17T04:46:37.281Z,11.32
2022-09-17T04:47:37.231Z,11.22
2022-09-17T04:48:37.216Z,11.32
2022-09-17T04:49:37.209Z,11.27
2022-09-17T04:50:37.204Z,11.30
2022-09-17T04:51:37.188Z,11.27
2022-09-17T04:52:37.307Z,11.26
2022-09-17T04:53:37.177Z,11.33
2022-09-17T04:54:37.166Z,11.27
2022-09-17T04:55:37.193Z,11.30
2022-09-17T04:56:37.153Z,11.27
2022-09-17T04:57:37.145Z,11.23
2022-09-17T04:58:37.137Z,11.18
2022-09-17T04:59:37.136Z,11.26
2022-09-17T05:00:37.192Z,11.30
2022-09-17T05:01:37.168Z,11.32
2022-09-17T05:02:37.109Z,11.19
2022-09-17T05:03:37.090Z,11.33
2022-09-17T05:04:37.088Z,11.29
2022-09-17T05:05:37.076Z,11.25
2022-09-17T05:06:37.067Z,11.12
2022-09-17T05:07:37.062Z,11.23
2022-09-17T05:08:37.152Z,11.19
2022-09-17T05:09:37.047Z,11.18
2022-09-17T05:10:37.038Z,11.23
2022-09-17T05:11:37.943Z,11.25
2022-09-17T05:12:37.016Z,11.18
2022-09-17T05:13:37.010Z,11.26
2022-09-17T05:14:37.004Z,11.25
2022-09-17T05:15:36.990Z,11.26
2022-09-17T05:16:37.010Z,11.19
2022-09-17T05:17:37.977Z,11.18
2022-09-17T05:18:36.969Z,11.23
2022-09-17T05:19:36.966Z,11.25
2022-09-17T05:20:36.957Z,11.25
2022-09-17T05:21:36.941Z,11.27
2022-09-17T05:22:36.935Z,11.29
2022-09-17T05:23:36.920Z,11.40
2022-09-17T05:24:38.022Z,11.36
2022-09-17T05:25:36.915Z,11.36
2022-09-17T05:26:36.896Z,11.33
2022-09-17T05:27:36.891Z,11.32
2022-09-17T05:28:36.888Z,11.44
2022-09-17T05:29:36.877Z,11.33
2022-09-17T05:30:36.878Z,11.40
2022-09-17T05:31:36.913Z,11.36
2022-09-17T05:32:37.376Z,11.45
2022-09-17T05:33:36.845Z,11.44
2022-09-17T05:34:36.839Z,11.47
2022-09-17T05:35:36.837Z,11.45
2022-09-17T05:36:36.819Z,11.44
2022-09-17T05:37:36.813Z,11.48
2022-09-17T05:38:36.810Z,11.51
2022-09-17T05:39:36.800Z,11.45
2022-09-17T05:40:36.937Z,11.50
2022-09-17T05:41:36.782Z,11.52
2022-09-17T05:42:36.774Z,11.60
2022-09-17T05:43:36.767Z,11.62
2022-09-17T05:44:36.757Z,11.63
2022-09-17T05:45:36.760Z,11.63
2022-09-17T05:46:36.799Z,11.69
2022-09-17T05:47:36.736Z,11.69
2022-09-17T05:48:36.728Z,11.66
2022-09-17T05:49:36.718Z,11.72
2022-09-17T05:50:36.716Z,11.77
2022-09-17T05:51:36.708Z,11.73
2022-09-17T05:52:36.700Z,11.83
2022-09-17T05:53:36.689Z,11.73
2022-09-17T05:54:36.689Z,11.87
2022-09-17T05:55:36.677Z,11.81
2022-09-17T05:56:36.796Z,11.77
2022-09-17T05:57:36.662Z,11.81
2022-09-17T05:58:36.660Z,11.87
2022-09-17T05:59:36.644Z,11.86
2022-09-17T06:00:36.637Z,11.83
2022-09-17T06:01:36.717Z,12.03
2022-09-17T06:02:37.416Z,11.95
2022-09-17T06:03:36.617Z,12.06
2022-09-17T06:04:36.618Z,12.09
2022-09-17T06:05:37.386Z,12.09
2022-09-17T06:06:36.609Z,12.24
2022-09-17T06:07:36.586Z,12.27
2022-09-17T06:08:36.576Z,12.25
2022-09-17T06:09:36.605Z,12.27
2022-09-17T06:10:36.569Z,12.15
2022-09-17T06:11:36.553Z,12.07
2022-09-17T06:12:36.744Z,12.10
2022-09-17T06:13:37.384Z,12.07
2022-09-17T06:14:36.531Z,12.03
2022-09-17T06:15:36.615Z,12.12
2022-09-17T06:16:36.598Z,12.02
2022-09-17T06:17:36.678Z,12.07
2022-09-17T06:18:36.503Z,12.02
2022-09-17T06:19:36.514Z,12.10
2022-09-17T06:20:36.524Z,12.07
2022-09-17T06:21:36.480Z,12.24
2022-09-17T06:22:37.464Z,12.27
2022-09-17T06:23:36.460Z,12.25
2022-09-17T06:24:36.454Z,12.35
2022-09-17T06:25:36.445Z,12.28
2022-09-17T06:26:36.445Z,12.22
2022-09-17T06:27:36.433Z,12.06
2022-09-17T06:28:41.286Z,12.04
2022-09-17T06:29:38.414Z,12.06
2022-09-17T06:30:36.409Z,12.02
2022-09-17T06:31:36.449Z,12.00
2022-09-17T06:32:37.606Z,12.00
2022-09-17T06:33:36.397Z,11.94
2022-09-17T06:34:36.377Z,12.20
2022-09-17T06:35:36.374Z,12.20
2022-09-17T06:36:36.369Z,12.28
2022-09-17T06:37:36.368Z,12.42
2022-09-17T06:38:36.347Z,12.87
2022-09-17T06:39:36.344Z,13.44
2022-09-17T06:40:36.399Z,13.95
2022-09-17T06:41:36.324Z,13.97
2022-09-17T06:42:36.327Z,14.12
2022-09-17T06:43:36.310Z,14.65
2022-09-17T06:44:36.398Z,14.82
2022-09-17T06:45:36.293Z,15.04
2022-09-17T06:46:36.329Z,15.58
2022-09-17T06:47:36.283Z,15.65
2022-09-17T06:48:36.268Z,16.09
2022-09-17T06:49:36.259Z,16.23
2022-09-17T06:50:40.607Z,16.16
2022-09-17T06:51:38.243Z,15.90
2022-09-17T06:52:36.235Z,15.88
2022-09-17T06:53:36.235Z,15.51
2022-09-17T06:54:36.221Z,15.33
2022-09-17T06:55:36.216Z,15.04
2022-09-17T06:56:36.216Z,14.79
2022-09-17T06:57:36.195Z,14.77
2022-09-17T06:58:36.195Z,14.44
2022-09-17T06:59:36.187Z,14.35
2022-09-17T07:00:36.337Z,14.30
2022-09-17T07:01:36.174Z,14.33
2022-09-17T07:02:36.163Z,14.40
2022-09-17T07:03:36.159Z,14.32
2022-09-17T07:04:36.145Z,14.44
2022-09-17T07:05:36.144Z,14.66
2022-09-17T07:06:36.129Z,14.70
2022-09-17T07:07:36.126Z,14.63
2022-09-17T07:08:36.130Z,14.50
2022-09-17T07:09:36.135Z,14.41
2022-09-17T07:10:36.099Z,14.48
2022-09-17T07:11:36.112Z,14.82
2022-09-17T07:12:36.095Z,14.96
2022-09-17T07:13:36.086Z,15.06
2022-09-17T07:14:36.067Z,15.17
2022-09-17T07:15:37.067Z,15.37
2022-09-17T07:16:36.347Z,15.54
2022-09-17T07:17:36.056Z,15.49
2022-09-17T07:18:36.052Z,15.55
2022-09-17T07:19:36.031Z,15.94
2022-09-17T07:20:36.024Z,16.32
2022-09-17T07:21:36.017Z,16.24
2022-09-17T07:22:36.061Z,16.39
2022-09-17T07:23:35.998Z,16.50
2022-09-17T07:24:36.908Z,16.75
2022-09-17T07:25:36.006Z,16.86
2022-09-17T07:26:35.973Z,16.84
2022-09-17T07:27:35.965Z,16.64
2022-09-17T07:28:35.964Z,16.54
2022-09-17T07:29:35.950Z,16.42
2022-09-17T07:30:35.949Z,16.08
2022-09-17T07:31:35.953Z,15.90
2022-09-17T07:32:36.029Z,16.08
2022-09-17T07:33:35.917Z,16.16
2022-09-17T07:34:35.908Z,16.36
2022-09-17T07:35:35.904Z,16.57
2022-09-17T07:36:35.893Z,16.96
2022-09-17T07:37:35.888Z,17.57
2022-09-17T07:38:35.882Z,17.98
2022-09-17T07:39:35.870Z,18.45
2022-09-17T07:40:35.987Z,18.52
2022-09-17T07:41:35.856Z,18.28
2022-09-17T07:42:35.855Z,18.52
2022-09-17T07:43:35.840Z,18.53
2022-09-17T07:44:35.833Z,18.34
2022-09-17T07:45:35.824Z,18.34
2022-09-17T07:46:35.863Z,18.58
2022-09-17T07:47:35.803Z,18.73
2022-09-17T07:48:35.917Z,18.80
2022-09-17T07:49:35.791Z,19.00
2022-09-17T07:50:35.785Z,19.00
2022-09-17T07:51:35.786Z,18.43
2022-09-17T07:52:35.773Z,18.33
2022-09-17T07:53:35.760Z,18.05
2022-09-17T07:54:35.756Z,17.98
2022-09-17T07:55:35.754Z,17.64
2022-09-17T07:56:35.747Z,17.48
2022-09-17T07:57:35.732Z,17.41
2022-09-17T07:58:35.726Z,17.14
2022-09-17T07:59:35.718Z,17.16
2022-09-17T08:00:35.713Z,17.05
2022-09-17T08:01:35.794Z,17.04
2022-09-17T08:02:35.776Z,16.72
2022-09-17T08:03:35.687Z,16.71
2022-09-17T08:04:35.779Z,16.93
2022-09-17T08:05:35.675Z,16.75
2022-09-17T08:06:35.660Z,16.86
2022-09-17T08:07:35.655Z,17.11
2022-09-17T08:08:35.644Z,17.09
2022-09-17T08:09:35.638Z,17.11
2022-09-17T08:10:35.633Z,17.12
2022-09-17T08:11:55.073Z,16.71
2022-09-17T08:12:37.618Z,16.72
2022-09-17T08:13:35.628Z,16.54
2022-09-17T08:14:37.519Z,16.57
2022-09-17T08:15:35.594Z,16.56
2022-09-17T08:16:35.648Z,16.50
2022-09-17T08:17:35.644Z,16.35
2022-09-17T08:18:35.571Z,16.12
2022-09-17T08:19:35.579Z,15.67
2022-09-17T08:20:35.661Z,15.24
2022-09-17T08:21:35.548Z,15.11
2022-09-17T08:22:35.538Z,15.18
2022-09-17T08:23:35.533Z,15.17
2022-09-17T08:24:35.528Z,15.22
2022-09-17T08:25:35.532Z,15.21
2022-09-17T08:26:35.510Z,15.18
2022-09-17T08:27:35.501Z,15.15
2022-09-17T08:28:35.491Z,15.11
2022-09-17T08:29:36.143Z,15.11
2022-09-17T08:30:35.489Z,15.37
2022-09-17T08:31:35.556Z,15.51
2022-09-17T08:32:35.461Z,15.59
2022-09-17T08:33:35.455Z,15.59
2022-09-17T08:34:35.449Z,15.52
2022-09-17T08:35:35.468Z,15.68
2022-09-17T08:36:35.541Z,15.79
2022-09-17T08:37:35.440Z,15.83
2022-09-17T08:38:38.036Z,15.94
2022-09-17T08:39:36.414Z,16.12
2022-09-17T08:40:35.464Z,16.05
2022-09-17T08:41:35.406Z,15.86
2022-09-17T08:42:35.943Z,15.73
2022-09-17T08:43:35.385Z,15.72
2022-09-17T08:44:35.377Z,15.75
2022-09-17T08:45:35.372Z,15.79
2022-09-17T08:46:35.415Z,15.79
2022-09-17T08:47:35.354Z,15.73
2022-09-17T08:48:35.349Z,15.70
2022-09-17T08:49:35.352Z,15.73
2022-09-17T08:50:35.339Z,15.68
2022-09-17T08:51:35.360Z,15.79
2022-09-17T08:52:35.415Z,15.82
2022-09-17T08:53:35.313Z,16.24
2022-09-17T08:54:35.295Z,16.32
2022-09-17T08:55:35.381Z,16.31
2022-09-17T08:56:35.279Z,16.24
2022-09-17T08:57:35.274Z,16.13
2022-09-17T08:58:35.266Z,16.39
2022-09-17T08:59:35.256Z,16.53
2022-09-17T09:00:35.256Z,16.39
2022-09-17T09:01:35.311Z,16.46
2022-09-17T09:02:36.037Z,16.42
2022-09-17T09:03:35.229Z,16.39
2022-09-17T09:04:35.221Z,16.29
2022-09-17T09:05:35.213Z,16.23
2022-09-17T09:06:35.207Z,16.20
2022-09-17T09:07:35.216Z,16.12
2022-09-17T09:08:35.293Z,16.13
2022-09-17T09:09:35.186Z,16.17
2022-09-17T09:10:35.188Z,15.86
2022-09-17T09:11:35.168Z,15.68
2022-09-17T09:12:35.180Z,15.73
2022-09-17T09:13:35.146Z,15.64
2022-09-17T09:14:35.145Z,15.80
2022-09-17T09:15:35.136Z,15.51
2022-09-17T09:16:35.199Z,15.44
2022-09-17T09:17:35.125Z,15.37
2022-09-17T09:18:35.117Z,15.33
2022-09-17T09:19:35.105Z,15.28
2022-09-17T09:20:35.104Z,15.15
2022-09-17T09:21:35.088Z,15.06
2022-09-17T09:22:35.081Z,14.94
2022-09-17T09:23:35.100Z,15.02
2022-09-17T09:24:35.166Z,14.96
2022-09-17T09:25:36.029Z,14.96
2022-09-17T09:26:35.054Z,15.04
2022-09-17T09:27:35.037Z,14.91
2022-09-17T09:28:35.038Z,14.84
2022-09-17T09:29:35.024Z,14.78
2022-09-17T09:30:35.016Z,14.68
2022-09-17T09:31:35.084Z,14.63
2022-09-17T09:32:35.005Z,14.45
2022-09-17T09:33:34.999Z,14.32
2022-09-17T09:34:34.985Z,14.25
2022-09-17T09:35:34.977Z,14.29
2022-09-17T09:36:34.998Z,14.41
2022-09-17T09:37:34.959Z,14.41
2022-09-17T09:38:34.964Z,14.50
2022-09-17T09:39:40.336Z,14.66
2022-09-17T09:40:37.142Z,14.69
2022-09-17T09:41:35.459Z,14.82
2022-09-17T09:42:34.931Z,14.97
2022-09-17T09:43:59.530Z,15.03
2022-09-17T09:44:36.918Z,15.11
2022-09-17T09:45:34.908Z,15.31
2022-09-17T09:46:34.970Z,15.40
2022-09-17T09:47:34.895Z,15.57
2022-09-17T09:48:34.877Z,15.62
2022-09-17T09:49:34.888Z,15.88
2022-09-17T09:51:01.915Z,15.92
2022-09-17T09:51:36.853Z,15.98
2022-09-17T09:52:34.852Z,16.31
2022-09-17T09:53:34.837Z,16.51
2022-09-17T09:54:34.840Z,16.78
2022-09-17T09:55:34.828Z,17.01
2022-09-17T09:56:34.917Z,16.97
2022-09-17T09:57:34.842Z,16.99
2022-09-17T09:58:34.797Z,16.94
2022-09-17T09:59:34.790Z,16.93
2022-09-17T10:00:34.785Z,16.89
2022-09-17T10:01:34.853Z,16.91
2022-09-17T10:02:34.883Z,16.76
2022-09-17T10:03:34.757Z,16.76
2022-09-17T10:04:34.746Z,16.87
2022-09-17T10:05:34.736Z,16.90
2022-09-17T10:06:34.734Z,16.89
2022-09-17T10:07:34.740Z,16.69
2022-09-17T10:08:34.710Z,16.53
2022-09-17T10:09:34.711Z,16.53
2022-09-17T10:10:34.698Z,16.53
2022-09-17T10:11:34.698Z,16.51
2022-09-17T10:12:34.787Z,16.32
2022-09-17T10:13:34.675Z,15.88
2022-09-17T10:14:34.671Z,15.92
2022-09-17T10:15:34.662Z,15.68
2022-09-17T10:16:34.674Z,15.90
2022-09-17T10:17:34.653Z,15.88
2022-09-17T10:18:34.648Z,16.24
2022-09-17T10:19:34.630Z,16.35
2022-09-17T10:20:34.620Z,16.46
2022-09-17T10:21:35.548Z,16.54
2022-09-17T10:22:34.609Z,16.61
2022-09-17T10:23:34.596Z,16.43
2022-09-17T10:24:34.599Z,16.42
2022-09-17T10:25:34.583Z,16.28
2022-09-17T10:26:34.584Z,16.21
2022-09-17T10:27:34.567Z,16.04
2022-09-17T10:28:34.660Z,16.02
2022-09-17T10:29:34.553Z,15.95
2022-09-17T10:30:34.540Z,15.94
2022-09-17T10:31:34.578Z,16.00
2022-09-17T10:32:34.530Z,15.98
2022-09-17T10:33:34.519Z,15.98
2022-09-17T10:34:34.516Z,15.94
2022-09-17T10:35:34.495Z,15.92
2022-09-17T10:36:37.950Z,16.10
2022-09-17T10:37:35.483Z,16.13
2022-09-17T10:38:34.480Z,16.23
2022-09-17T10:39:34.469Z,16.35
2022-09-17T10:40:34.489Z,16.23
2022-09-17T10:41:34.455Z,16.36
2022-09-17T10:42:34.441Z,16.42
2022-09-17T10:43:34.434Z,16.43
2022-09-17T10:44:34.525Z,16.24
2022-09-17T10:45:34.446Z,16.32
2022-09-17T10:46:34.460Z,16.21
2022-09-17T10:47:34.409Z,16.15
2022-09-17T10:48:34.391Z,16.09
2022-09-17T10:49:34.406Z,16.08
2022-09-17T10:50:34.993Z,16.05
2022-09-17T10:51:34.376Z,15.80
2022-09-17T10:52:35.496Z,15.91
2022-09-17T10:53:34.354Z,15.92
2022-09-17T10:54:34.348Z,15.83
2022-09-17T10:55:34.347Z,15.84
2022-09-17T10:56:34.347Z,16.00
2022-09-17T10:57:34.328Z,15.95
2022-09-17T10:58:37.159Z,15.82
2022-09-17T10:59:35.307Z,16.04
2022-09-17T11:00:34.331Z,16.05
2022-09-17T11:01:34.404Z,15.92
2022-09-17T11:02:35.350Z,15.92
2022-09-17T11:03:34.276Z,15.86
2022-09-17T11:04:34.265Z,15.91
2022-09-17T11:05:34.286Z,15.65
2022-09-17T11:06:34.248Z,15.72
2022-09-17T11:07:34.253Z,15.61
2022-09-17T11:08:34.243Z,15.51
2022-09-17T11:09:34.239Z,15.46
2022-09-17T11:10:34.228Z,15.57
2022-09-17T11:11:34.206Z,15.65
2022-09-17T11:12:34.203Z,15.54
2022-09-17T11:13:34.192Z,15.61
2022-09-17T11:14:34.191Z,15.55
2022-09-17T11:15:34.172Z,15.52
2022-09-17T11:16:34.350Z,15.54
2022-09-17T11:17:34.161Z,15.62
2022-09-17T11:18:34.151Z,15.73
2022-09-17T11:19:34.159Z,15.77
2022-09-17T11:20:34.135Z,15.72
2022-09-17T11:21:34.132Z,15.75
2022-09-17T11:22:34.120Z,15.64
2022-09-17T11:23:34.139Z,15.73
2022-09-17T11:24:34.119Z,15.77
2022-09-17T11:25:34.098Z,15.68
2022-09-17T11:26:34.094Z,15.72
2022-09-17T11:27:34.084Z,15.47
2022-09-17T11:28:34.073Z,15.36
2022-09-17T11:29:34.995Z,15.17
2022-09-17T11:30:34.058Z,15.09
2022-09-17T11:31:34.155Z,15.07
2022-09-17T11:32:34.144Z,14.97
2022-09-17T11:33:34.036Z,14.89
2022-09-17T11:34:34.021Z,14.86
2022-09-17T11:35:34.022Z,14.88
2022-09-17T11:36:34.016Z,14.99
2022-09-17T11:37:34.010Z,15.27
2022-09-17T11:38:33.993Z,15.39
2022-09-17T11:39:33.984Z,15.51
2022-09-17T11:40:34.027Z,15.73
2022-09-17T11:41:33.967Z,15.94
2022-09-17T11:42:33.967Z,16.10
2022-09-17T11:43:33.955Z,16.33
2022-09-17T11:44:33.941Z,16.56
2022-09-17T11:45:33.954Z,16.65
2022-09-17T11:46:33.985Z,16.72
2022-09-17T11:47:33.920Z,16.78
2022-09-17T11:48:34.009Z,16.91
2022-09-17T11:49:33.912Z,17.12
2022-09-17T11:50:33.895Z,17.29
2022-09-17T11:51:33.899Z,17.26
2022-09-17T11:52:33.882Z,17.14
2022-09-17T11:53:33.876Z,17.16
2022-09-17T11:54:33.873Z,17.15
2022-09-17T11:55:33.861Z,16.87
2022-09-17T11:56:33.847Z,16.89
2022-09-17T11:57:33.868Z,16.91
2022-09-17T11:58:33.832Z,16.79
2022-09-17T11:59:33.820Z,16.83
2022-09-17T12:00:33.818Z,16.83
2022-09-17T12:01:33.862Z,16.90
2022-09-17T12:02:33.957Z,16.83
2022-09-17T12:03:33.795Z,16.87
2022-09-17T12:04:33.879Z,17.06
2022-09-17T12:05:33.770Z,17.09
2022-09-17T12:06:33.770Z,17.16
2022-09-17T12:07:33.755Z,17.24
2022-09-17T12:08:33.747Z,17.26
2022-09-17T12:09:34.602Z,17.39
2022-09-17T12:10:34.096Z,17.49
2022-09-17T12:11:33.721Z,17.59
2022-09-17T12:12:49.780Z,17.59
2022-09-17T12:13:35.705Z,17.64
2022-09-17T12:14:33.715Z,17.79
2022-09-17T12:15:33.693Z,17.83
2022-09-17T12:16:33.771Z,17.97
2022-09-17T12:17:33.676Z,18.10
2022-09-17T12:18:33.849Z,18.07
2022-09-17T12:19:33.662Z,18.29
2022-09-17T12:20:33.746Z,18.38
2022-09-17T12:21:33.641Z,18.38
2022-09-17T12:22:36.969Z,18.40
2022-09-17T12:23:35.638Z,18.29
2022-09-17T12:24:33.628Z,18.37
2022-09-17T12:25:33.609Z,18.53
2022-09-17T12:26:33.653Z,18.73
2022-09-17T12:27:33.599Z,18.68
2022-09-17T12:28:33.587Z,18.80
2022-09-17T12:29:33.586Z,18.81
2022-09-17T12:30:33.577Z,18.52
2022-09-17T12:31:33.673Z,18.31
2022-09-17T12:32:33.555Z,18.34
2022-09-17T12:33:33.548Z,18.43
2022-09-17T12:34:33.552Z,18.49
2022-09-17T12:36:02.379Z,18.59
2022-09-17T12:36:35.631Z,18.59
2022-09-17T12:37:33.522Z,18.49
2022-09-17T12:38:33.520Z,18.50
2022-09-17T12:39:33.515Z,18.40
2022-09-17T12:40:33.544Z,18.08
2022-09-17T12:41:33.490Z,17.71
2022-09-17T12:42:33.484Z,17.23
2022-09-17T12:43:33.476Z,16.74
2022-09-17T12:44:33.456Z,16.50
2022-09-17T12:45:34.468Z,16.39
2022-09-17T12:46:33.505Z,16.49
2022-09-17T12:47:33.446Z,16.47
2022-09-17T12:48:33.432Z,16.31
2022-09-17T12:49:34.098Z,16.23
2022-09-17T12:50:33.427Z,16.10
2022-09-17T12:51:33.413Z,16.20
2022-09-17T12:52:33.510Z,16.33
2022-09-17T12:53:33.400Z,16.20
2022-09-17T12:54:33.385Z,16.24